createdAt,value
2023-01-17T00:00:28.220Z,5.93
2023-01-17T00:01:04.699Z,6.30
2023-01-17T00:01:36.087Z,5.82
2023-01-17T00:02:08.087Z,5.60
2023-01-17T00:02:39.473Z,5.40
2023-01-17T00:03:10.855Z,5.70
2023-01-17T00:03:42.321Z,5.60
2023-01-17T00:04:13.804Z,5.63
2023-01-17T00:04:45.407Z,6.35
2023-01-17T00:05:16.847Z,5.70
2023-01-17T00:05:48.214Z,5.20
2023-01-17T00:06:19.585Z,5.90
2023-01-17T00:06:50.977Z,5.55
2023-01-17T00:07:23.188Z,5.20
2023-01-17T00:07:54.619Z,5.50
2023-01-17T00:08:26.067Z,5.10
2023-01-17T00:08:57.489Z,5.00
2023-01-17T00:09:28.888Z,5.40
2023-01-17T00:10:01.328Z,5.15
2023-01-17T00:10:32.780Z,5.97
2023-01-17T00:11:04.167Z,6.18
2023-01-17T00:11:35.547Z,5.57
2023-01-17T00:12:07.257Z,5.25
2023-01-17T00:12:38.777Z,6.07
2023-01-17T00:13:10.212Z,5.88
2023-01-17T00:13:41.598Z,5.63
2023-01-17T00:14:12.934Z,5.30
2023-01-17T00:14:44.322Z,5.07
2023-01-17T00:15:16.119Z,5.47
2023-01-17T00:15:47.545Z,5.70
2023-01-17T00:16:18.992Z,5.15
2023-01-17T00:16:50.395Z,5.10
2023-01-17T00:17:25.777Z,5.47
2023-01-17T00:17:57.455Z,5.57
2023-01-17T00:18:28.847Z,5.00
2023-01-17T00:19:00.204Z,5.07
2023-01-17T00:19:31.616Z,4.70
2023-01-17T00:20:03.049Z,5.43
2023-01-17T00:20:34.434Z,5.35
2023-01-17T00:21:06.178Z,5.38
2023-01-17T00:21:37.518Z,5.32
2023-01-17T00:22:09.824Z,4.93
2023-01-17T00:22:42.735Z,5.28
2023-01-17T00:23:21.400Z,5.93
2023-01-17T00:23:52.801Z,4.95
2023-01-17T00:24:24.178Z,5.22
2023-01-17T00:24:55.553Z,5.38
2023-01-17T00:25:28.687Z,5.35
2023-01-17T00:26:00.223Z,5.43
2023-01-17T00:26:31.866Z,5.97
2023-01-17T00:27:03.212Z,5.10
2023-01-17T00:27:34.597Z,5.03
2023-01-17T00:28:06.123Z,4.72
2023-01-17T00:28:38.651Z,5.55
2023-01-17T00:29:10.034Z,5.40
2023-01-17T00:29:41.415Z,5.40
2023-01-17T00:30:13.000Z,5.67
2023-01-17T00:30:45.003Z,4.82
2023-01-17T00:31:16.913Z,5.40
2023-01-17T00:31:48.393Z,5.18
2023-01-17T00:32:19.773Z,4.63
2023-01-17T00:32:51.211Z,5.28
2023-01-17T00:33:23.078Z,5.30
2023-01-17T00:33:54.448Z,5.00
2023-01-17T00:34:25.853Z,4.72
2023-01-17T00:34:57.202Z,4.82
2023-01-17T00:35:29.415Z,5.25
2023-01-17T00:36:01.473Z,4.68
2023-01-17T00:36:32.859Z,4.97
2023-01-17T00:37:04.249Z,4.82
2023-01-17T00:37:35.589Z,4.78
2023-01-17T00:38:08.352Z,4.95
2023-01-17T00:38:40.310Z,5.90
2023-01-17T00:39:11.741Z,5.10
2023-01-17T00:39:43.123Z,5.00
2023-01-17T00:40:14.562Z,4.78
2023-01-17T00:40:46.206Z,5.45
2023-01-17T00:41:17.696Z,5.60
2023-01-17T00:41:49.093Z,5.47
2023-01-17T00:42:20.471Z,4.93
2023-01-17T00:42:51.902Z,4.82
2023-01-17T00:43:23.456Z,4.97
2023-01-17T00:43:54.849Z,4.75
2023-01-17T00:44:26.209Z,4.90
2023-01-17T00:44:57.594Z,3.88
2023-01-17T00:45:29.041Z,5.05
2023-01-17T00:46:00.496Z,4.60
2023-01-17T00:46:31.883Z,4.75
2023-01-17T00:47:03.297Z,4.68
2023-01-17T00:47:34.841Z,4.97
2023-01-17T00:48:06.335Z,5.63
2023-01-17T00:48:37.873Z,4.90
2023-01-17T00:49:09.303Z,4.82
2023-01-17T00:49:40.685Z,5.93
2023-01-17T00:50:12.079Z,5.20
2023-01-17T00:50:43.517Z,5.30
2023-01-17T00:51:15.066Z,5.07
2023-01-17T00:51:46.452Z,5.25
2023-01-17T00:52:17.895Z,4.38
2023-01-17T00:52:49.299Z,4.55
2023-01-17T00:53:20.700Z,4.22
2023-01-17T00:53:52.050Z,4.97
2023-01-17T00:54:23.473Z,4.80
2023-01-17T00:54:54.815Z,4.78
2023-01-17T00:55:26.139Z,4.18
2023-01-17T00:56:00.541Z,4.68
2023-01-17T00:56:31.932Z,4.67
2023-01-17T00:57:03.836Z,5.03
2023-01-17T00:57:35.216Z,4.10
2023-01-17T00:58:07.133Z,5.37
2023-01-17T00:58:38.551Z,5.05
2023-01-17T00:59:09.945Z,4.75
2023-01-17T00:59:41.429Z,4.20
2023-01-17T01:00:13.076Z,4.38
2023-01-17T01:00:44.489Z,5.30
2023-01-17T01:01:16.035Z,4.60
2023-01-17T01:01:47.641Z,4.25
2023-01-17T01:02:19.207Z,4.75
2023-01-17T01:02:50.721Z,5.17
2023-01-17T01:03:22.209Z,4.68
2023-01-17T01:03:53.525Z,4.97
2023-01-17T01:04:24.915Z,4.20
2023-01-17T01:04:56.262Z,4.13
2023-01-17T01:05:29.749Z,4.83
2023-01-17T01:06:04.311Z,4.72
2023-01-17T01:06:35.745Z,4.80
2023-01-17T01:07:07.181Z,4.50
2023-01-17T01:07:38.579Z,5.07
2023-01-17T01:08:20.360Z,4.25
2023-01-17T01:08:51.847Z,4.40
2023-01-17T01:09:23.270Z,4.93
2023-01-17T01:09:54.652Z,3.85
2023-01-17T01:10:26.096Z,3.90
2023-01-17T01:10:57.478Z,5.00
2023-01-17T01:11:28.821Z,4.82
2023-01-17T01:12:00.157Z,4.20
2023-01-17T01:12:31.696Z,4.68
2023-01-17T01:13:03.076Z,4.13
2023-01-17T01:13:34.667Z,4.57
2023-01-17T01:14:07.384Z,3.92
2023-01-17T01:14:38.772Z,4.03
2023-01-17T01:15:10.240Z,4.15
2023-01-17T01:15:41.607Z,4.10
2023-01-17T01:16:13.536Z,4.35
2023-01-17T01:16:45.138Z,4.15
2023-01-17T01:17:16.517Z,4.03
2023-01-17T01:17:47.909Z,3.60
2023-01-17T01:18:19.246Z,4.43
2023-01-17T01:18:50.682Z,3.75
2023-01-17T01:19:22.090Z,3.55
2023-01-17T01:19:53.464Z,3.75
2023-01-17T01:20:24.890Z,3.58
2023-01-17T01:20:56.274Z,3.67
2023-01-17T01:21:27.667Z,3.72
2023-01-17T01:21:59.044Z,4.22
2023-01-17T01:22:30.444Z,3.30
2023-01-17T01:23:05.405Z,3.70
2023-01-17T01:23:36.801Z,4.72
2023-01-17T01:24:08.398Z,3.90
2023-01-17T01:24:39.769Z,3.30
2023-01-17T01:25:11.151Z,3.70
2023-01-17T01:25:42.547Z,3.72
2023-01-17T01:26:13.935Z,3.78
2023-01-17T01:26:45.328Z,3.50
2023-01-17T01:27:16.695Z,3.60
2023-01-17T01:27:48.088Z,3.83
2023-01-17T01:28:19.568Z,3.63
2023-01-17T01:28:51.008Z,4.15
2023-01-17T01:29:22.393Z,3.65
2023-01-17T01:29:53.780Z,3.38
2023-01-17T01:30:25.171Z,3.50
2023-01-17T01:30:59.058Z,3.43
2023-01-17T01:31:30.522Z,3.58
2023-01-17T01:32:01.912Z,3.60
2023-01-17T01:32:33.917Z,3.38
2023-01-17T01:33:09.080Z,3.10
2023-01-17T01:33:40.495Z,3.55
2023-01-17T01:34:11.895Z,3.97
2023-01-17T01:34:43.289Z,3.38
2023-01-17T01:35:14.708Z,2.95
2023-01-17T01:35:53.478Z,3.58
2023-01-17T01:36:24.892Z,3.43
2023-01-17T01:36:56.242Z,3.22
2023-01-17T01:37:27.632Z,3.40
2023-01-17T01:37:59.062Z,4.05
2023-01-17T01:38:31.738Z,3.33
2023-01-17T01:39:03.158Z,3.10
2023-01-17T01:39:34.554Z,3.33
2023-01-17T01:40:06.320Z,3.40
2023-01-17T01:40:44.459Z,3.95
2023-01-17T01:41:15.840Z,3.70
2023-01-17T01:41:47.207Z,3.70
2023-01-17T01:42:18.544Z,3.35
2023-01-17T01:42:54.688Z,3.30
2023-01-17T01:43:46.337Z,3.28
2023-01-17T01:44:36.701Z,3.15
2023-01-17T01:45:19.407Z,3.17
2023-01-17T01:45:53.119Z,3.35
2023-01-17T01:46:31.015Z,3.00
2023-01-17T01:47:02.508Z,3.30
2023-01-17T01:47:36.967Z,2.97
2023-01-17T01:48:22.589Z,3.33
2023-01-17T01:49:14.926Z,4.00
2023-01-17T01:49:46.607Z,3.28
2023-01-17T01:50:20.010Z,3.72
2023-01-17T01:50:51.539Z,3.53
2023-01-17T01:51:25.773Z,3.58
2023-01-17T01:51:59.573Z,3.50
2023-01-17T01:52:32.447Z,2.90
2023-01-17T01:53:05.271Z,3.63
2023-01-17T01:53:38.614Z,3.53
2023-01-17T01:54:23.447Z,3.35
2023-01-17T01:54:58.882Z,3.25
2023-01-17T01:55:39.663Z,2.92
2023-01-17T01:56:12.689Z,2.97
2023-01-17T01:56:44.596Z,3.15
2023-01-17T01:57:18.663Z,3.20
2023-01-17T01:57:52.916Z,3.30
2023-01-17T01:58:27.523Z,3.80
2023-01-17T01:58:59.844Z,3.50
2023-01-17T01:59:32.190Z,3.30
2023-01-17T02:00:07.469Z,3.17
2023-01-17T02:00:40.470Z,3.30
2023-01-17T02:01:11.963Z,3.55
2023-01-17T02:01:43.519Z,3.22
2023-01-17T02:02:15.523Z,2.97
2023-01-17T02:02:48.648Z,3.05
2023-01-17T02:03:23.051Z,3.33
2023-01-17T02:03:54.502Z,3.13
2023-01-17T02:04:26.907Z,3.05
2023-01-17T02:04:59.620Z,3.33
2023-01-17T02:05:31.828Z,3.13
2023-01-17T02:06:11.608Z,3.25
2023-01-17T02:06:47.899Z,3.20
2023-01-17T02:07:22.537Z,3.20
2023-01-17T02:08:08.304Z,3.08
2023-01-17T02:08:40.090Z,3.00
2023-01-17T02:09:12.402Z,3.22
2023-01-17T02:09:44.520Z,2.83
2023-01-17T02:10:16.059Z,2.90
2023-01-17T02:10:47.589Z,3.33
2023-01-17T02:11:19.223Z,3.38
2023-01-17T02:11:50.721Z,3.03
2023-01-17T02:12:22.160Z,3.30
2023-01-17T02:12:54.919Z,2.63
2023-01-17T02:13:26.667Z,2.92
2023-01-17T02:13:58.261Z,3.08
2023-01-17T02:14:29.690Z,2.72
2023-01-17T02:15:01.287Z,3.10
2023-01-17T02:15:51.242Z,3.13
2023-01-17T02:16:31.859Z,3.20
2023-01-17T02:17:09.233Z,2.60
2023-01-17T02:17:59.267Z,2.92
2023-01-17T02:18:30.682Z,3.30
2023-01-17T02:19:15.183Z,3.53
2023-01-17T02:20:01.119Z,3.05
2023-01-17T02:20:41.470Z,3.20
2023-01-17T02:21:21.203Z,2.75
2023-01-17T02:21:55.705Z,2.92
2023-01-17T02:22:27.094Z,3.10
2023-01-17T02:23:07.381Z,2.65
2023-01-17T02:23:47.944Z,3.23
2023-01-17T02:24:22.352Z,2.47
2023-01-17T02:25:08.891Z,3.35
2023-01-17T02:25:43.630Z,2.83
2023-01-17T02:26:15.033Z,3.50
2023-01-17T02:26:52.614Z,3.47
2023-01-17T02:27:24.223Z,2.90
2023-01-17T02:28:14.325Z,3.13
2023-01-17T02:28:56.774Z,3.17
2023-01-17T02:29:38.147Z,3.03
2023-01-17T02:30:21.701Z,3.45
2023-01-17T02:31:11.541Z,3.40
2023-01-17T02:31:46.901Z,3.00
2023-01-17T02:32:18.274Z,3.03
2023-01-17T02:33:01.607Z,2.75
2023-01-17T02:33:43.040Z,2.60
2023-01-17T02:34:34.663Z,3.50
2023-01-17T02:35:21.356Z,3.05
2023-01-17T02:36:01.903Z,2.83
2023-01-17T02:36:36.461Z,2.78
2023-01-17T02:37:11.838Z,3.13
2023-01-17T02:37:49.369Z,3.53
2023-01-17T02:38:28.583Z,2.78
2023-01-17T02:39:04.736Z,3.10
2023-01-17T02:39:51.172Z,3.10
2023-01-17T02:40:25.530Z,2.85
2023-01-17T02:41:13.451Z,3.55
2023-01-17T02:41:47.490Z,3.20
2023-01-17T02:42:20.491Z,3.17
2023-01-17T02:42:54.934Z,3.17
2023-01-17T02:43:26.431Z,2.83
2023-01-17T02:43:57.864Z,3.15
2023-01-17T02:44:29.236Z,3.50
2023-01-17T02:45:01.942Z,3.20
2023-01-17T02:45:33.379Z,3.00
2023-01-17T02:46:04.920Z,2.80
2023-01-17T02:46:49.421Z,3.17
2023-01-17T02:47:22.723Z,3.60
2023-01-17T02:47:54.147Z,2.90
2023-01-17T02:48:28.257Z,3.58
2023-01-17T02:48:59.843Z,3.22
2023-01-17T02:49:31.838Z,3.05
2023-01-17T02:50:06.134Z,3.45
2023-01-17T02:50:43.367Z,2.85
2023-01-17T02:51:23.763Z,3.10
2023-01-17T02:52:13.670Z,3.28
2023-01-17T02:52:54.028Z,2.95
2023-01-17T02:53:31.410Z,2.90
2023-01-17T02:54:12.116Z,3.38
2023-01-17T02:55:02.019Z,3.17
2023-01-17T02:55:42.391Z,3.58
2023-01-17T02:56:28.849Z,3.70
2023-01-17T02:57:00.209Z,3.80
2023-01-17T02:57:42.670Z,3.50
2023-01-17T02:58:23.151Z,3.10
2023-01-17T02:58:57.506Z,3.83
2023-01-17T02:59:44.279Z,4.25
2023-01-17T03:00:35.914Z,3.60
2023-01-17T03:01:07.554Z,4.05
2023-01-17T03:01:55.481Z,3.30
2023-01-17T03:02:48.207Z,3.75
2023-01-17T03:03:19.606Z,3.03
2023-01-17T03:04:00.587Z,4.05
2023-01-17T03:04:32.027Z,3.95
2023-01-17T03:05:03.407Z,3.58
2023-01-17T03:05:41.462Z,3.63
2023-01-17T03:06:18.813Z,3.83
2023-01-17T03:06:53.231Z,3.78
2023-01-17T03:07:25.933Z,3.65
2023-01-17T03:07:57.591Z,3.50
2023-01-17T03:08:29.373Z,3.30
2023-01-17T03:09:02.039Z,4.07
2023-01-17T03:09:33.526Z,3.83
2023-01-17T03:10:05.638Z,3.58
2023-01-17T03:10:37.032Z,3.40
2023-01-17T03:11:09.387Z,4.43
2023-01-17T03:11:40.875Z,3.58
2023-01-17T03:12:12.757Z,4.10
2023-01-17T03:12:44.452Z,3.92
2023-01-17T03:13:15.886Z,3.95
2023-01-17T03:13:47.278Z,3.95
2023-01-17T03:14:18.614Z,3.88
2023-01-17T03:14:49.953Z,4.35
2023-01-17T03:15:21.393Z,3.58
2023-01-17T03:15:52.988Z,3.08
2023-01-17T03:16:25.867Z,4.05
2023-01-17T03:16:57.353Z,4.13
2023-01-17T03:17:31.393Z,4.10
2023-01-17T03:18:04.865Z,4.22
2023-01-17T03:18:36.256Z,4.05
2023-01-17T03:19:07.639Z,3.88
2023-01-17T03:19:39.063Z,3.88
2023-01-17T03:20:10.715Z,3.83
2023-01-17T03:20:42.204Z,4.18
2023-01-17T03:21:13.582Z,4.05
2023-01-17T03:21:44.924Z,3.72
2023-01-17T03:22:16.317Z,3.80
2023-01-17T03:22:47.703Z,4.22
2023-01-17T03:23:19.054Z,3.20
2023-01-17T03:23:50.678Z,3.55
2023-01-17T03:24:22.065Z,3.72
2023-01-17T03:24:53.499Z,3.63
2023-01-17T03:25:24.871Z,4.20
2023-01-17T03:25:56.323Z,3.60
2023-01-17T03:26:27.733Z,4.15
2023-01-17T03:26:59.106Z,4.18
2023-01-17T03:27:30.590Z,3.38
2023-01-17T03:28:01.919Z,4.22
2023-01-17T03:28:33.261Z,3.08
2023-01-17T03:29:04.664Z,3.72
2023-01-17T03:29:36.106Z,4.03
2023-01-17T03:30:07.880Z,3.65
2023-01-17T03:30:39.322Z,3.97
2023-01-17T03:31:13.970Z,4.00
2023-01-17T03:31:45.348Z,4.47
2023-01-17T03:32:16.747Z,3.92
2023-01-17T03:32:48.132Z,4.10
2023-01-17T03:33:19.475Z,3.55
2023-01-17T03:33:50.877Z,4.25
2023-01-17T03:34:22.295Z,3.88
2023-01-17T03:34:53.738Z,4.28
2023-01-17T03:35:25.212Z,3.40
2023-01-17T03:35:56.611Z,3.90
2023-01-17T03:36:28.046Z,3.80
2023-01-17T03:36:59.478Z,3.47
2023-01-17T03:37:30.829Z,3.75
2023-01-17T03:38:02.261Z,3.88
2023-01-17T03:38:33.689Z,3.35
2023-01-17T03:39:05.176Z,3.72
2023-01-17T03:39:36.573Z,3.77
2023-01-17T03:40:08.356Z,3.67
2023-01-17T03:40:39.845Z,3.88
2023-01-17T03:41:11.230Z,3.03
2023-01-17T03:41:42.721Z,4.10
2023-01-17T03:42:14.112Z,4.43
2023-01-17T03:42:45.604Z,3.30
2023-01-17T03:43:16.984Z,3.50
2023-01-17T03:43:48.475Z,3.43
2023-01-17T03:44:19.851Z,3.70
2023-01-17T03:44:51.219Z,3.42
2023-01-17T03:45:22.580Z,3.65
2023-01-17T03:46:01.235Z,3.72
2023-01-17T03:46:32.822Z,4.00
2023-01-17T03:47:04.211Z,3.72
2023-01-17T03:47:35.600Z,3.85
2023-01-17T03:48:07.084Z,3.38
2023-01-17T03:48:40.772Z,3.63
2023-01-17T03:49:12.172Z,3.60
2023-01-17T03:49:43.622Z,3.22
2023-01-17T03:50:15.130Z,3.45
2023-01-17T03:50:50.161Z,3.42
2023-01-17T03:51:21.748Z,3.40
2023-01-17T03:51:53.195Z,3.60
2023-01-17T03:52:24.582Z,3.05
2023-01-17T03:52:55.962Z,3.40
2023-01-17T03:53:29.346Z,3.15
2023-01-17T03:54:00.745Z,3.38
2023-01-17T03:54:32.155Z,3.45
2023-01-17T03:55:03.626Z,3.22
2023-01-17T03:55:35.041Z,3.08
2023-01-17T03:56:06.591Z,3.08
2023-01-17T03:56:37.973Z,3.25
2023-01-17T03:57:09.354Z,3.40
2023-01-17T03:57:40.742Z,3.25
2023-01-17T03:58:12.241Z,3.17
2023-01-17T03:58:43.635Z,3.33
2023-01-17T03:59:15.050Z,3.78
2023-01-17T03:59:46.454Z,2.97
2023-01-17T04:00:17.987Z,3.17
2023-01-17T04:00:49.409Z,3.13
2023-01-17T04:01:20.989Z,2.67
2023-01-17T04:01:52.538Z,2.88
2023-01-17T04:02:23.994Z,3.28
2023-01-17T04:02:55.404Z,3.38
2023-01-17T04:03:26.810Z,3.35
2023-01-17T04:03:58.189Z,3.97
2023-01-17T04:04:29.589Z,3.42
2023-01-17T04:05:00.970Z,3.03
2023-01-17T04:05:32.332Z,2.88
2023-01-17T04:06:03.790Z,2.90
2023-01-17T04:06:35.181Z,2.97
2023-01-17T04:07:06.617Z,2.80
2023-01-17T04:07:38.044Z,3.45
2023-01-17T04:08:09.536Z,3.03
2023-01-17T04:08:40.973Z,3.00
2023-01-17T04:09:12.359Z,3.42
2023-01-17T04:09:43.684Z,3.00
2023-01-17T04:10:15.189Z,3.00
2023-01-17T04:10:46.577Z,2.60
2023-01-17T04:11:17.957Z,2.50
2023-01-17T04:11:49.390Z,3.00
2023-01-17T04:12:20.782Z,2.55
2023-01-17T04:12:52.106Z,2.63
2023-01-17T04:13:23.553Z,3.55
2023-01-17T04:13:55.095Z,2.53
2023-01-17T04:14:26.522Z,2.50
2023-01-17T04:14:57.863Z,2.88
2023-01-17T04:15:29.248Z,2.83
2023-01-17T04:16:00.683Z,2.38
2023-01-17T04:16:32.281Z,3.30
2023-01-17T04:17:03.678Z,2.63
2023-01-17T04:17:35.100Z,2.47
2023-01-17T04:18:06.899Z,2.72
2023-01-17T04:18:38.330Z,2.45
2023-01-17T04:19:13.312Z,2.53
2023-01-17T04:19:44.695Z,3.30
2023-01-17T04:20:36.361Z,3.13
2023-01-17T04:21:07.823Z,3.13
2023-01-17T04:21:39.223Z,2.70
2023-01-17T04:22:10.605Z,3.35
2023-01-17T04:22:41.960Z,2.67
2023-01-17T04:23:13.390Z,2.47
2023-01-17T04:23:44.894Z,2.20
2023-01-17T04:24:17.859Z,2.50
2023-01-17T04:24:49.490Z,2.38
2023-01-17T04:25:20.928Z,2.70
2023-01-17T04:25:52.322Z,2.50
2023-01-17T04:26:23.758Z,2.10
2023-01-17T04:26:55.141Z,2.25
2023-01-17T04:27:26.520Z,2.63
2023-01-17T04:27:58.580Z,2.50
2023-01-17T04:28:30.021Z,2.50
2023-01-17T04:29:01.534Z,2.60
2023-01-17T04:29:33.035Z,2.35
2023-01-17T04:30:04.590Z,2.00
2023-01-17T04:30:36.040Z,2.42
2023-01-17T04:31:07.538Z,2.40
2023-01-17T04:31:38.985Z,2.20
2023-01-17T04:32:10.388Z,2.50
2023-01-17T04:32:41.745Z,2.03
2023-01-17T04:33:13.145Z,1.88
2023-01-17T04:33:44.531Z,2.50
2023-01-17T04:34:16.191Z,2.47
2023-01-17T04:34:47.559Z,2.55
2023-01-17T04:35:18.953Z,2.42
2023-01-17T04:35:50.389Z,2.90
2023-01-17T04:36:21.873Z,2.47
2023-01-17T04:36:53.240Z,2.53
2023-01-17T04:37:24.709Z,2.95
2023-01-17T04:37:56.140Z,2.53
2023-01-17T04:38:27.468Z,2.65
2023-01-17T04:38:58.811Z,1.87
2023-01-17T04:39:30.245Z,2.40
2023-01-17T04:40:01.688Z,2.25
2023-01-17T04:40:33.066Z,2.40
2023-01-17T04:41:04.557Z,2.58
2023-01-17T04:41:35.952Z,3.17
2023-01-17T04:42:07.336Z,2.20
2023-01-17T04:42:38.759Z,2.35
2023-01-17T04:43:10.157Z,2.65
2023-01-17T04:43:41.537Z,1.95
2023-01-17T04:44:12.875Z,1.88
2023-01-17T04:44:44.275Z,2.20
2023-01-17T04:45:15.755Z,2.60
2023-01-17T04:45:47.132Z,2.10
2023-01-17T04:46:18.598Z,2.10
2023-01-17T04:46:49.993Z,2.10
2023-01-17T04:47:21.399Z,2.20
2023-01-17T04:47:52.824Z,3.00
2023-01-17T04:48:24.485Z,2.20
2023-01-17T04:48:55.873Z,2.70
2023-01-17T04:49:27.252Z,2.50
2023-01-17T04:49:58.676Z,2.08
2023-01-17T04:50:30.065Z,2.25
2023-01-17T04:51:02.032Z,2.17
2023-01-17T04:51:33.407Z,2.22
2023-01-17T04:52:04.955Z,2.13
2023-01-17T04:52:36.339Z,2.10
2023-01-17T04:53:07.717Z,2.90
2023-01-17T04:53:39.105Z,2.10
2023-01-17T04:54:10.490Z,2.08
2023-01-17T04:54:41.879Z,2.08
2023-01-17T04:55:13.311Z,2.15
2023-01-17T04:55:45.521Z,2.63
2023-01-17T04:56:16.956Z,2.22
2023-01-17T04:56:48.451Z,1.63
2023-01-17T04:57:20.344Z,2.55
2023-01-17T04:57:52.011Z,2.58
2023-01-17T04:58:23.514Z,2.25
2023-01-17T04:58:56.601Z,2.42
2023-01-17T04:59:27.983Z,2.53
2023-01-17T04:59:59.372Z,2.92
2023-01-17T05:00:30.815Z,2.13
2023-01-17T05:01:06.167Z,2.35
2023-01-17T05:01:37.692Z,2.00
2023-01-17T05:02:09.140Z,2.40
2023-01-17T05:02:40.694Z,2.53
2023-01-17T05:03:12.222Z,2.67
2023-01-17T05:03:43.638Z,2.42
2023-01-17T05:04:15.261Z,2.35
2023-01-17T05:04:46.646Z,2.65
2023-01-17T05:05:18.092Z,2.70
2023-01-17T05:05:49.529Z,3.33
2023-01-17T05:06:20.910Z,2.60
2023-01-17T05:06:52.297Z,2.88
2023-01-17T05:07:23.691Z,3.00
2023-01-17T05:07:55.804Z,2.47
2023-01-17T05:08:27.228Z,2.70
2023-01-17T05:08:58.567Z,2.08
2023-01-17T05:09:29.943Z,2.25
2023-01-17T05:10:01.336Z,2.38
2023-01-17T05:10:32.792Z,2.47
2023-01-17T05:11:04.264Z,2.80
2023-01-17T05:11:35.663Z,2.03
2023-01-17T05:12:07.156Z,2.50
2023-01-17T05:12:38.572Z,2.38
2023-01-17T05:13:09.964Z,2.40
2023-01-17T05:13:41.395Z,2.65
2023-01-17T05:14:12.783Z,2.47
2023-01-17T05:14:44.168Z,2.80
2023-01-17T05:15:15.560Z,2.70
2023-01-17T05:15:47.165Z,2.65
2023-01-17T05:16:18.852Z,2.42
2023-01-17T05:16:52.088Z,2.33
2023-01-17T05:17:23.517Z,2.60
2023-01-17T05:17:54.960Z,2.20
2023-01-17T05:18:26.383Z,2.75
2023-01-17T05:18:57.766Z,2.45
2023-01-17T05:19:29.208Z,2.97
2023-01-17T05:20:00.609Z,2.70
2023-01-17T05:20:31.970Z,2.30
2023-01-17T05:21:04.027Z,2.63
2023-01-17T05:21:35.418Z,2.58
2023-01-17T05:22:06.849Z,2.30
2023-01-17T05:22:38.209Z,2.30
2023-01-17T05:23:09.996Z,2.80
2023-01-17T05:23:41.317Z,2.45
2023-01-17T05:24:12.717Z,2.13
2023-01-17T05:24:44.969Z,2.63
2023-01-17T05:25:16.394Z,2.72
2023-01-17T05:25:47.737Z,2.50
2023-01-17T05:26:19.331Z,2.30
2023-01-17T05:26:50.760Z,2.58
2023-01-17T05:27:22.145Z,2.28
2023-01-17T05:27:53.784Z,2.70
2023-01-17T05:28:25.184Z,2.80
2023-01-17T05:28:56.557Z,2.47
2023-01-17T05:29:27.907Z,2.42
2023-01-17T05:29:59.246Z,2.90
2023-01-17T05:30:31.561Z,2.10
2023-01-17T05:31:03.072Z,2.80
2023-01-17T05:31:34.517Z,2.30
2023-01-17T05:32:06.373Z,2.72
2023-01-17T05:32:37.768Z,2.53
2023-01-17T05:33:09.123Z,2.17
2023-01-17T05:33:40.575Z,2.30
2023-01-17T05:34:12.064Z,2.28
2023-01-17T05:34:43.448Z,2.55
2023-01-17T05:35:15.389Z,2.42
2023-01-17T05:35:46.736Z,2.35
2023-01-17T05:36:19.777Z,2.45
2023-01-17T05:36:52.885Z,2.40
2023-01-17T05:37:24.280Z,3.30
2023-01-17T05:37:55.819Z,2.95
2023-01-17T05:38:27.258Z,2.28
2023-01-17T05:38:58.689Z,2.37
2023-01-17T05:39:30.116Z,2.53
2023-01-17T05:40:01.566Z,2.60
2023-01-17T05:40:33.043Z,2.80
2023-01-17T05:41:04.483Z,2.70
2023-01-17T05:41:35.916Z,2.33
2023-01-17T05:42:07.357Z,2.63
2023-01-17T05:42:38.739Z,2.65
2023-01-17T05:43:10.194Z,2.63
2023-01-17T05:43:41.614Z,2.77
2023-01-17T05:44:13.009Z,2.45
2023-01-17T05:44:44.392Z,2.70
2023-01-17T05:45:16.807Z,2.67
2023-01-17T05:45:48.441Z,2.60
2023-01-17T05:46:19.908Z,3.05
2023-01-17T05:46:51.312Z,2.50
2023-01-17T05:47:22.750Z,2.60
2023-01-17T05:47:54.814Z,2.53
2023-01-17T05:48:26.203Z,2.65
2023-01-17T05:48:57.587Z,2.25
2023-01-17T05:49:29.016Z,2.35
2023-01-17T05:50:00.358Z,2.40
2023-01-17T05:50:33.340Z,2.55
2023-01-17T05:51:04.798Z,2.53
2023-01-17T05:51:36.152Z,2.30
2023-01-17T05:52:07.533Z,2.40
2023-01-17T05:52:38.921Z,2.83
2023-01-17T05:53:12.004Z,2.22
2023-01-17T05:53:43.410Z,2.45
2023-01-17T05:54:14.821Z,2.13
2023-01-17T05:54:46.249Z,1.90
2023-01-17T05:55:17.650Z,2.67
2023-01-17T05:55:49.079Z,2.33
2023-01-17T05:56:20.415Z,2.20
2023-01-17T05:56:51.798Z,2.42
2023-01-17T05:57:23.143Z,2.35
2023-01-17T05:57:55.037Z,2.35
2023-01-17T05:58:26.471Z,2.50
2023-01-17T05:58:57.908Z,2.38
2023-01-17T05:59:37.111Z,2.03
2023-01-17T06:00:09.335Z,2.75
2023-01-17T06:00:40.759Z,2.33
2023-01-17T06:01:12.266Z,2.10
2023-01-17T06:01:43.633Z,2.20
2023-01-17T06:02:14.994Z,1.92
2023-01-17T06:02:46.593Z,2.30
2023-01-17T06:03:18.018Z,2.17
2023-01-17T06:03:49.398Z,2.17
2023-01-17T06:04:20.837Z,2.15
2023-01-17T06:04:52.319Z,2.33
2023-01-17T06:05:24.119Z,2.47
2023-01-17T06:05:55.459Z,2.30
2023-01-17T06:06:26.819Z,2.40
2023-01-17T06:06:58.220Z,2.50
2023-01-17T06:07:29.661Z,2.22
2023-01-17T06:08:01.049Z,2.20
2023-01-17T06:08:32.495Z,2.15
2023-01-17T06:09:03.967Z,2.40
2023-01-17T06:09:35.310Z,2.30
2023-01-17T06:10:06.878Z,2.22
2023-01-17T06:10:38.289Z,2.80
2023-01-17T06:11:09.716Z,2.03
2023-01-17T06:11:41.107Z,2.63
2023-01-17T06:12:12.484Z,1.95
2023-01-17T06:12:44.603Z,1.90
2023-01-17T06:13:16.029Z,2.50
2023-01-17T06:13:48.445Z,2.20
2023-01-17T06:14:19.841Z,1.95
2023-01-17T06:14:51.214Z,2.10
2023-01-17T06:15:22.557Z,2.35
2023-01-17T06:15:53.952Z,2.20
2023-01-17T06:16:25.351Z,1.90
2023-01-17T06:16:56.770Z,1.92
2023-01-17T06:17:28.248Z,2.08
2023-01-17T06:18:03.523Z,2.45
2023-01-17T06:18:34.908Z,1.95
2023-01-17T06:19:06.306Z,2.03
2023-01-17T06:19:37.638Z,2.05
2023-01-17T06:20:09.793Z,2.47
2023-01-17T06:20:41.277Z,1.70
2023-01-17T06:21:12.627Z,2.13
2023-01-17T06:21:44.048Z,2.00
2023-01-17T06:22:15.419Z,2.78
2023-01-17T06:22:46.856Z,2.28
2023-01-17T06:23:18.257Z,2.42
2023-01-17T06:23:49.645Z,2.37
2023-01-17T06:24:20.980Z,2.45
2023-01-17T06:24:52.365Z,1.83
2023-01-17T06:25:23.753Z,2.15
2023-01-17T06:25:55.137Z,2.40
2023-01-17T06:26:26.523Z,1.98
2023-01-17T06:26:57.961Z,2.20
2023-01-17T06:27:29.348Z,2.13
2023-01-17T06:28:01.518Z,1.90
2023-01-17T06:28:32.923Z,2.88
2023-01-17T06:29:04.320Z,2.65
2023-01-17T06:29:35.655Z,2.08
2023-01-17T06:30:07.358Z,2.20
2023-01-17T06:30:38.798Z,2.20
2023-01-17T06:31:10.233Z,2.13
2023-01-17T06:31:41.677Z,2.35
2023-01-17T06:32:13.859Z,1.80
2023-01-17T06:32:45.203Z,2.03
2023-01-17T06:33:16.736Z,2.38
2023-01-17T06:33:48.088Z,2.53
2023-01-17T06:34:19.497Z,2.65
2023-01-17T06:34:50.871Z,2.13
2023-01-17T06:35:22.854Z,2.10
2023-01-17T06:35:54.298Z,2.22
2023-01-17T06:36:25.627Z,2.28
2023-01-17T06:36:57.124Z,1.98
2023-01-17T06:37:28.496Z,1.77
2023-01-17T06:37:59.886Z,2.47
2023-01-17T06:38:31.388Z,2.38
2023-01-17T06:39:02.913Z,2.63
2023-01-17T06:39:34.436Z,2.45
2023-01-17T06:40:06.134Z,2.20
2023-01-17T06:40:37.531Z,2.53
2023-01-17T06:41:08.962Z,2.33
2023-01-17T06:41:40.341Z,2.05
2023-01-17T06:42:11.693Z,2.30
2023-01-17T06:42:43.249Z,2.72
2023-01-17T06:43:14.631Z,2.63
2023-01-17T06:43:46.074Z,2.55
2023-01-17T06:44:17.433Z,2.70
2023-01-17T06:44:48.824Z,2.25
2023-01-17T06:45:20.827Z,2.17
2023-01-17T06:45:52.250Z,2.30
2023-01-17T06:46:23.739Z,3.42
2023-01-17T06:46:55.271Z,2.63
2023-01-17T06:47:26.677Z,2.17
2023-01-17T06:47:58.120Z,1.88
2023-01-17T06:48:29.470Z,2.22
2023-01-17T06:49:00.933Z,2.60
2023-01-17T06:49:32.292Z,2.58
2023-01-17T06:50:03.918Z,1.88
2023-01-17T06:50:35.309Z,2.33
2023-01-17T06:51:06.695Z,2.72
2023-01-17T06:51:38.125Z,1.90
2023-01-17T06:52:09.554Z,2.30
2023-01-17T06:52:41.719Z,2.30
2023-01-17T06:53:13.113Z,2.35
2023-01-17T06:53:44.487Z,1.98
2023-01-17T06:54:15.880Z,2.35
2023-01-17T06:54:47.262Z,2.40
2023-01-17T06:55:18.646Z,2.33
2023-01-17T06:55:50.054Z,2.72
2023-01-17T06:56:21.529Z,2.33
2023-01-17T06:56:52.874Z,2.30
2023-01-17T06:57:24.239Z,2.25
2023-01-17T06:57:58.446Z,2.25
2023-01-17T06:58:29.880Z,2.40
2023-01-17T06:59:01.316Z,2.35
2023-01-17T06:59:32.812Z,2.35
2023-01-17T07:00:04.467Z,2.30
2023-01-17T07:00:36.480Z,2.30
2023-01-17T07:01:09.340Z,2.03
2023-01-17T07:01:40.799Z,2.08
2023-01-17T07:02:12.193Z,2.30
2023-01-17T07:02:43.575Z,1.88
2023-01-17T07:03:25.426Z,2.47
2023-01-17T07:03:56.994Z,2.55
2023-01-17T07:04:28.401Z,1.83
2023-01-17T07:04:59.882Z,1.95
2023-01-17T07:05:31.327Z,2.63
2023-01-17T07:06:03.424Z,2.35
2023-01-17T07:06:37.820Z,2.10
2023-01-17T07:07:09.215Z,1.95
2023-01-17T07:07:40.648Z,2.30
2023-01-17T07:08:12.094Z,2.40
2023-01-17T07:08:43.572Z,3.38
2023-01-17T07:09:14.971Z,2.80
2023-01-17T07:09:46.362Z,2.83
2023-01-17T07:10:17.789Z,2.90
2023-01-17T07:10:49.190Z,2.17
2023-01-17T07:11:20.659Z,2.60
2023-01-17T07:11:52.043Z,2.57
2023-01-17T07:12:23.482Z,2.55
2023-01-17T07:12:58.578Z,2.35
2023-01-17T07:13:30.410Z,2.08
2023-01-17T07:14:01.829Z,1.88
2023-01-17T07:14:33.273Z,2.53
2023-01-17T07:15:05.169Z,1.65